createdAt,value
2022-11-29T00:01:23.470Z,21.08
2022-11-29T00:03:51.841Z,13.73
2022-11-29T00:06:22.756Z,18.40
2022-11-29T00:08:51.516Z,19.08
2022-11-29T00:11:35.250Z,16.02
2022-11-29T00:14:03.203Z,16.45
2022-11-29T00:16:31.137Z,21.48
2022-11-29T00:18:59.011Z,18.05
2022-11-29T00:21:28.299Z,19.15
2022-11-29T00:23:56.328Z,20.88
2022-11-29T00:26:24.384Z,21.48
2022-11-29T00:28:52.197Z,18.38
2022-11-29T00:31:22.202Z,19.05
2022-11-29T00:33:50.718Z,20.40
2022-11-29T00:36:19.077Z,21.02
2022-11-29T00:38:48.376Z,18.38
2022-11-29T00:41:16.604Z,17.23
2022-11-29T00:43:44.659Z,19.42
2022-11-29T00:46:12.880Z,21.40
2022-11-29T00:48:40.737Z,22.10
2022-11-29T00:51:08.682Z,21.00
2022-11-29T00:53:37.258Z,21.88
2022-11-29T00:56:07.896Z,19.10
2022-11-29T00:58:37.060Z,21.58
2022-11-29T01:01:05.944Z,22.60
2022-11-29T01:03:33.807Z,18.73
2022-11-29T01:06:03.063Z,20.63
2022-11-29T01:08:30.904Z,21.85
2022-11-29T01:11:08.889Z,18.45
2022-11-29T01:13:37.109Z,22.90
2022-11-29T01:16:06.160Z,17.75
2022-11-29T01:18:34.641Z,22.13
2022-11-29T01:21:06.363Z,17.42
2022-11-29T01:23:35.967Z,17.00
2022-11-29T01:26:07.585Z,21.92
2022-11-29T01:28:36.284Z,18.42
2022-11-29T01:31:07.526Z,17.83
2022-11-29T01:33:35.794Z,19.02
2022-11-29T01:36:04.495Z,18.50
2022-11-29T01:38:32.663Z,21.20
2022-11-29T01:41:03.511Z,21.10
2022-11-29T01:43:33.395Z,19.65
2022-11-29T01:46:01.257Z,20.88
2022-11-29T01:48:31.956Z,27.08
2022-11-29T01:51:02.350Z,23.25
2022-11-29T01:53:30.359Z,12.82
2022-11-29T01:56:03.843Z,17.38
2022-11-29T01:58:33.573Z,26.17
2022-11-29T02:01:02.386Z,22.40
2022-11-29T02:03:30.226Z,23.38
2022-11-29T02:05:58.032Z,21.00
2022-11-29T02:08:30.434Z,21.35
2022-11-29T02:11:34.715Z,24.20
2022-11-29T02:14:17.574Z,18.52
2022-11-29T02:16:59.083Z,22.90
2022-11-29T02:19:49.992Z,22.15
2022-11-29T02:22:25.293Z,19.38
2022-11-29T02:25:08.702Z,23.65
2022-11-29T02:28:24.969Z,23.70
2022-11-29T02:31:32.294Z,20.17
2022-11-29T02:34:33.170Z,21.17
2022-11-29T02:37:18.362Z,21.75
2022-11-29T02:40:01.789Z,19.92
2022-11-29T02:42:56.209Z,20.38
2022-11-29T02:45:47.281Z,16.13
2022-11-29T02:48:34.519Z,22.63
2022-11-29T02:51:12.502Z,19.40
2022-11-29T02:53:45.458Z,23.02
2022-11-29T02:56:22.605Z,22.15
2022-11-29T02:58:55.426Z,19.90
2022-11-29T03:01:29.630Z,21.70
2022-11-29T03:04:08.526Z,18.50
2022-11-29T03:06:47.714Z,19.98
2022-11-29T03:09:26.649Z,20.77
2022-11-29T03:12:05.010Z,15.32
2022-11-29T03:14:44.876Z,22.13
2022-11-29T03:17:19.366Z,19.88
2022-11-29T03:20:03.747Z,23.02
2022-11-29T03:22:42.980Z,19.88
2022-11-29T03:25:18.898Z,22.02
2022-11-29T03:27:54.068Z,20.13
2022-11-29T03:30:22.215Z,21.13
2022-11-29T03:32:58.118Z,21.45
2022-11-29T03:35:34.589Z,23.05
2022-11-29T03:38:14.133Z,21.95
2022-11-29T03:40:47.571Z,20.25
2022-11-29T03:43:19.162Z,23.15
2022-11-29T03:45:53.078Z,13.57
2022-11-29T03:48:29.644Z,22.60
2022-11-29T03:51:00.899Z,21.90
2022-11-29T03:53:37.025Z,22.98
2022-11-29T03:56:24.198Z,26.50
2022-11-29T03:58:58.340Z,21.02
2022-11-29T04:01:56.835Z,19.92
2022-11-29T04:04:57.514Z,26.00
2022-11-29T04:07:44.042Z,21.52
2022-11-29T04:10:33.956Z,26.55
2022-11-29T04:13:35.528Z,23.45
2022-11-29T04:16:42.728Z,20.92
2022-11-29T04:19:44.299Z,23.35
2022-11-29T04:22:40.343Z,26.00
2022-11-29T04:25:49.274Z,21.38
2022-11-29T04:28:42.964Z,25.00
2022-11-29T04:31:24.166Z,23.90
2022-11-29T04:34:19.724Z,23.13
2022-11-29T04:37:06.168Z,25.88
2022-11-29T04:39:57.562Z,22.77
2022-11-29T04:42:43.305Z,24.05
2022-11-29T04:45:40.693Z,22.95
2022-11-29T04:48:27.634Z,24.60
2022-11-29T04:51:04.318Z,24.17
2022-11-29T04:53:44.825Z,27.55
2022-11-29T04:56:21.512Z,27.58
2022-11-29T04:58:59.302Z,19.20
2022-11-29T05:01:34.184Z,29.38
2022-11-29T05:04:09.819Z,24.33
2022-11-29T05:06:46.095Z,24.13
2022-11-29T05:09:23.290Z,25.20
2022-11-29T05:12:05.153Z,24.45
2022-11-29T05:14:49.942Z,23.02
2022-11-29T05:17:40.987Z,25.67
2022-11-29T05:20:27.634Z,24.33
2022-11-29T05:23:16.117Z,29.35
2022-11-29T05:25:51.572Z,21.02
2022-11-29T05:28:26.739Z,25.38
2022-11-29T05:31:30.673Z,27.05
2022-11-29T05:34:22.712Z,24.02
2022-11-29T05:37:03.216Z,23.60
2022-11-29T05:39:39.916Z,28.88
2022-11-29T05:42:32.129Z,27.90
2022-11-29T05:45:05.548Z,23.77
2022-11-29T05:47:42.389Z,23.58
2022-11-29T05:50:17.165Z,34.30
2022-11-29T05:52:54.225Z,27.70
2022-11-29T05:55:33.077Z,23.98
2022-11-29T05:58:05.579Z,22.15
2022-11-29T06:00:47.591Z,29.27
2022-11-29T06:03:25.135Z,19.40
2022-11-29T06:05:58.406Z,24.38
2022-11-29T06:08:35.373Z,24.90
2022-11-29T06:11:07.169Z,27.33
2022-11-29T06:13:50.921Z,24.67
2022-11-29T06:16:50.780Z,20.83
2022-11-29T06:19:42.325Z,25.52
2022-11-29T06:22:32.052Z,24.40
2022-11-29T06:25:17.154Z,25.95
2022-11-29T06:28:04.688Z,17.30
2022-11-29T06:30:48.251Z,24.83
2022-11-29T06:33:23.133Z,24.35
2022-11-29T06:36:12.974Z,23.13
2022-11-29T06:38:41.555Z,21.60
2022-11-29T06:41:17.412Z,27.00
2022-11-29T06:43:45.909Z,24.02
2022-11-29T06:46:23.418Z,19.33
2022-11-29T06:49:00.614Z,20.83
2022-11-29T06:51:38.116Z,19.20
2022-11-29T06:54:16.799Z,24.00
2022-11-29T06:56:50.590Z,22.70
2022-11-29T06:59:35.922Z,22.38
2022-11-29T07:02:13.936Z,19.73
2022-11-29T07:04:57.577Z,22.63
2022-11-29T07:07:27.472Z,19.80
2022-11-29T07:09:59.595Z,21.95
2022-11-29T07:12:28.117Z,21.23
2022-11-29T07:14:56.837Z,20.25
2022-11-29T07:17:31.789Z,22.33
2022-11-29T07:20:11.120Z,23.75
2022-11-29T07:22:55.764Z,20.40
2022-11-29T07:25:35.374Z,26.85
2022-11-29T07:28:15.313Z,18.88
2022-11-29T07:30:52.124Z,17.92
2022-11-29T07:33:27.578Z,20.15
2022-11-29T07:36:01.196Z,18.52
2022-11-29T07:38:52.877Z,17.45
2022-11-29T07:41:28.636Z,20.92
2022-11-29T07:44:05.698Z,19.83
2022-11-29T07:46:33.555Z,22.20
2022-11-29T07:49:01.381Z,20.23
2022-11-29T07:51:29.289Z,22.45
2022-11-29T07:53:58.468Z,24.48
2022-11-29T07:56:26.285Z,19.67
2022-11-29T07:58:54.316Z,9.27
2022-11-29T08:01:22.249Z,21.65
2022-11-29T08:03:50.181Z,17.98
2022-11-29T08:06:24.023Z,24.05
2022-11-29T08:08:51.875Z,21.40
2022-11-29T08:11:21.083Z,17.67
2022-11-29T08:13:49.351Z,19.50
2022-11-29T08:16:18.582Z,21.65
2022-11-29T08:18:46.689Z,24.10
2022-11-29T08:21:17.953Z,17.75
2022-11-29T08:23:45.840Z,21.40
2022-11-29T08:26:14.506Z,21.27
2022-11-29T08:28:44.645Z,26.13
2022-11-29T08:31:14.183Z,23.67
2022-11-29T08:33:44.031Z,21.60
2022-11-29T08:36:14.390Z,20.02
2022-11-29T08:38:42.308Z,21.15
2022-11-29T08:41:12.775Z,22.95
2022-11-29T08:43:40.984Z,20.20
2022-11-29T08:46:16.699Z,18.48
2022-11-29T08:48:47.326Z,19.30
2022-11-29T08:51:15.530Z,19.27
2022-11-29T08:53:42.387Z,18.83
2022-11-29T08:56:41.776Z,21.00
2022-11-29T08:58:58.916Z,20.80
2022-11-29T09:01:29.333Z,20.48
2022-11-29T09:04:07.696Z,20.83
2022-11-29T09:06:40.779Z,23.92
2022-11-29T09:09:08.701Z,19.52
2022-11-29T09:11:37.126Z,23.73
2022-11-29T09:14:07.580Z,13.65
2022-11-29T09:16:38.773Z,21.45
2022-11-29T09:19:07.187Z,22.10
2022-11-29T09:21:36.946Z,20.95
2022-11-29T09:24:06.444Z,22.38
2022-11-29T09:26:37.946Z,20.13
2022-11-29T09:29:07.841Z,22.98
2022-11-29T09:31:37.319Z,21.92
2022-11-29T09:34:05.167Z,21.63
2022-11-29T09:36:33.035Z,23.27
2022-11-29T09:39:03.752Z,27.60
2022-11-29T09:42:00.765Z,24.23
2022-11-29T09:44:42.067Z,19.73
2022-11-29T09:47:22.858Z,20.45
2022-11-29T09:50:04.781Z,23.83
2022-11-29T09:52:47.668Z,23.25
2022-11-29T09:55:35.239Z,19.75
2022-11-29T09:58:04.626Z,31.50
2022-11-29T10:00:36.520Z,18.40
2022-11-29T10:03:18.071Z,26.27
2022-11-29T10:05:50.193Z,26.77
2022-11-29T10:08:26.111Z,22.50
2022-11-29T10:10:58.521Z,24.30
2022-11-29T10:13:29.823Z,26.92
2022-11-29T10:16:02.910Z,25.73
2022-11-29T10:18:35.555Z,23.95
2022-11-29T10:21:11.197Z,23.30
2022-11-29T10:23:44.802Z,27.15
2022-11-29T10:26:13.751Z,28.90
2022-11-29T10:28:45.066Z,29.58
2022-11-29T10:31:20.305Z,26.10
2022-11-29T10:33:50.658Z,27.83
2022-11-29T10:36:26.393Z,25.50
2022-11-29T10:38:59.342Z,25.73
2022-11-29T10:41:28.054Z,26.63
2022-11-29T10:43:59.790Z,16.67
2022-11-29T10:46:31.629Z,24.02
2022-11-29T10:49:03.724Z,23.90
2022-11-29T10:51:32.993Z,24.17
2022-11-29T10:54:17.148Z,26.80
2022-11-29T10:56:46.633Z,30.73
2022-11-29T10:59:22.554Z,22.48
2022-11-29T11:01:51.834Z,28.73
2022-11-29T11:04:28.803Z,29.30
2022-11-29T11:07:01.157Z,28.50
2022-11-29T11:09:36.430Z,26.67
2022-11-29T11:12:08.570Z,30.30
2022-11-29T11:14:38.752Z,28.73
2022-11-29T11:17:21.896Z,30.20
2022-11-29T11:19:58.376Z,30.08
2022-11-29T11:22:27.944Z,29.05
2022-11-29T11:25:01.208Z,31.45
2022-11-29T11:27:31.157Z,31.63
2022-11-29T11:29:59.339Z,26.98
2022-11-29T11:32:27.605Z,34.72
2022-11-29T11:34:58.169Z,33.13
2022-11-29T11:37:28.155Z,30.38
2022-11-29T11:39:58.196Z,34.77
2022-11-29T11:42:38.779Z,28.90
2022-11-29T11:45:24.222Z,29.00
2022-11-29T11:47:54.047Z,29.90
2022-11-29T11:50:30.422Z,28.65
2022-11-29T11:53:01.381Z,31.57
2022-11-29T11:55:34.252Z,29.08
2022-11-29T11:58:09.814Z,29.67
2022-11-29T12:01:11.518Z,27.85
2022-11-29T12:03:36.329Z,31.23
2022-11-29T12:06:24.061Z,30.58
2022-11-29T12:08:55.517Z,28.58
2022-11-29T12:11:25.181Z,32.50
2022-11-29T12:13:57.545Z,31.20
2022-11-29T12:16:30.189Z,31.95
2022-11-29T12:19:02.713Z,33.35
2022-11-29T12:21:39.517Z,37.10
2022-11-29T12:24:21.767Z,31.40
2022-11-29T12:26:57.178Z,31.42
2022-11-29T12:29:29.827Z,40.70
2022-11-29T12:32:12.523Z,31.23
2022-11-29T12:34:57.098Z,31.08
2022-11-29T12:37:33.619Z,27.25
2022-11-29T12:40:07.512Z,34.78
2022-11-29T12:42:45.728Z,31.67
2022-11-29T12:45:35.514Z,39.03
2022-11-29T12:48:18.787Z,36.78
2022-11-29T12:50:58.586Z,33.40
2022-11-29T12:53:46.336Z,35.55
2022-11-29T12:56:19.941Z,34.05
2022-11-29T12:58:57.432Z,32.42
2022-11-29T13:01:34.644Z,42.42
2022-11-29T13:04:14.244Z,31.77
2022-11-29T13:06:50.176Z,36.90
2022-11-29T13:10:01.278Z,30.83
2022-11-29T13:12:36.414Z,35.83
2022-11-29T13:15:07.941Z,29.77
2022-11-29T13:17:43.566Z,28.30
2022-11-29T13:20:23.270Z,31.17
2022-11-29T13:22:57.508Z,37.45
2022-11-29T13:25:31.849Z,27.27
2022-11-29T13:28:02.681Z,34.58
2022-11-29T13:30:30.732Z,29.35
2022-11-29T13:33:04.122Z,28.27
2022-11-29T13:35:39.896Z,27.85
2022-11-29T13:38:16.955Z,21.23
2022-11-29T13:40:55.997Z,24.73
2022-11-29T13:43:31.442Z,31.92
2022-11-29T13:46:10.543Z,33.33
2022-11-29T13:48:49.601Z,31.33
2022-11-29T13:51:33.261Z,29.95
2022-11-29T13:54:04.214Z,26.23
2022-11-29T13:56:46.496Z,28.65
2022-11-29T13:59:23.686Z,29.83
2022-11-29T14:01:53.870Z,27.25
2022-11-29T14:04:29.472Z,26.73
2022-11-29T14:07:09.141Z,29.65
2022-11-29T14:09:46.116Z,26.27
2022-11-29T14:12:31.156Z,29.70
2022-11-29T14:15:02.540Z,32.10
2022-11-29T14:17:47.958Z,28.38
2022-11-29T14:20:51.160Z,31.10
2022-11-29T14:23:33.366Z,31.80
2022-11-29T14:26:28.793Z,31.90
2022-11-29T14:28:59.052Z,24.83
2022-11-29T14:31:56.329Z,29.25
2022-11-29T14:34:39.964Z,31.77
2022-11-29T14:37:20.854Z,30.85
2022-11-29T14:39:53.691Z,26.67
2022-11-29T14:42:24.326Z,30.50
2022-11-29T14:44:56.054Z,29.58
2022-11-29T14:47:29.680Z,31.27
2022-11-29T14:49:59.705Z,30.23
2022-11-29T14:52:38.617Z,30.40
2022-11-29T14:55:09.776Z,29.48
2022-11-29T14:58:06.040Z,33.15
2022-11-29T15:00:44.566Z,29.83
2022-11-29T15:03:17.752Z,33.70
2022-11-29T15:05:58.458Z,32.75
2022-11-29T15:08:35.017Z,27.00
2022-11-29T15:11:07.979Z,29.88
2022-11-29T15:13:37.962Z,30.85
2022-11-29T15:16:29.913Z,28.67
2022-11-29T15:19:20.563Z,30.83
2022-11-29T15:21:56.476Z,29.83
2022-11-29T15:24:28.170Z,26.15
2022-11-29T15:26:57.682Z,23.48
2022-11-29T15:29:26.252Z,29.13
2022-11-29T15:31:57.948Z,30.98
2022-11-29T15:34:32.542Z,29.30
2022-11-29T15:37:00.997Z,28.30
2022-11-29T15:39:31.611Z,35.90
2022-11-29T15:42:04.881Z,29.90
2022-11-29T15:44:35.582Z,29.17
2022-11-29T15:47:23.080Z,28.52
2022-11-29T15:49:51.442Z,31.73
2022-11-29T15:52:26.026Z,26.33
2022-11-29T15:54:57.715Z,29.35
2022-11-29T15:57:29.057Z,33.15
2022-11-29T15:59:59.525Z,31.17
2022-11-29T16:02:31.390Z,31.15
2022-11-29T16:05:02.485Z,32.65
2022-11-29T16:07:34.231Z,33.13
2022-11-29T16:10:06.383Z,31.92
2022-11-29T16:12:34.308Z,25.65
2022-11-29T16:15:02.604Z,34.58
2022-11-29T16:17:34.718Z,30.65
2022-11-29T16:20:23.652Z,30.05
2022-11-29T16:23:12.676Z,33.25
2022-11-29T16:25:54.855Z,32.83
2022-11-29T16:28:23.123Z,32.65
2022-11-29T16:30:50.997Z,29.38
2022-11-29T16:33:24.413Z,22.00
2022-11-29T16:36:03.371Z,33.92
2022-11-29T16:38:31.232Z,34.92
2022-11-29T16:41:05.313Z,31.83
2022-11-29T16:43:53.749Z,38.50
2022-11-29T16:46:31.833Z,34.10
2022-11-29T16:49:25.547Z,34.33
2022-11-29T16:51:54.912Z,34.53
2022-11-29T16:54:25.100Z,33.08
2022-11-29T16:56:54.412Z,31.10
2022-11-29T16:59:27.909Z,26.67
2022-11-29T17:01:56.743Z,27.45
2022-11-29T17:04:26.217Z,33.25
2022-11-29T17:06:55.128Z,32.90
2022-11-29T17:09:26.036Z,35.20
2022-11-29T17:11:54.254Z,30.00
2022-11-29T17:14:22.100Z,30.52
2022-11-29T17:16:50.524Z,34.67
2022-11-29T17:19:19.567Z,35.08
2022-11-29T17:21:49.175Z,33.13
2022-11-29T17:24:19.565Z,41.28
2022-11-29T17:26:47.785Z,37.40
2022-11-29T17:29:17.212Z,33.60
2022-11-29T17:31:45.980Z,28.23
2022-11-29T17:34:14.184Z,33.53
2022-11-29T17:36:42.089Z,32.35
2022-11-29T17:39:11.664Z,34.25
2022-11-29T17:41:39.518Z,31.20
2022-11-29T17:44:07.364Z,30.45
2022-11-29T17:46:37.547Z,37.25
2022-11-29T17:49:07.319Z,28.98
2022-11-29T17:51:54.004Z,33.95
2022-11-29T17:54:23.829Z,31.83
2022-11-29T17:56:52.190Z,28.45
2022-11-29T17:59:20.427Z,31.27
2022-11-29T18:01:48.523Z,34.95
2022-11-29T18:04:16.543Z,32.72
2022-11-29T18:06:49.436Z,28.83
2022-11-29T18:09:18.481Z,33.13
2022-11-29T18:11:49.928Z,29.75
2022-11-29T18:14:20.647Z,33.35
2022-11-29T18:16:48.614Z,31.13
2022-11-29T18:19:18.315Z,30.42
2022-11-29T18:21:46.295Z,32.42
2022-11-29T18:24:14.391Z,34.90
2022-11-29T18:26:42.895Z,38.85
2022-11-29T18:29:12.296Z,32.20
2022-11-29T18:31:42.074Z,27.02
2022-11-29T18:34:11.209Z,31.48
2022-11-29T18:36:42.949Z,33.85
2022-11-29T18:39:13.987Z,31.25
2022-11-29T18:41:42.909Z,32.65
2022-11-29T18:44:13.892Z,31.17
2022-11-29T18:46:43.800Z,29.95
2022-11-29T18:49:13.179Z,27.35
2022-11-29T18:51:42.853Z,29.23
2022-11-29T18:54:11.444Z,30.05
2022-11-29T18:56:39.640Z,27.65
2022-11-29T18:59:10.339Z,28.75
2022-11-29T19:01:42.703Z,23.65
2022-11-29T19:04:12.610Z,22.95
2022-11-29T19:06:41.085Z,24.13
2022-11-29T19:09:12.508Z,26.77
2022-11-29T19:11:40.741Z,14.45
2022-11-29T19:14:11.415Z,26.30
2022-11-29T19:16:42.890Z,21.77
2022-11-29T19:19:11.388Z,15.40
2022-11-29T19:21:40.359Z,27.52
2022-11-29T19:24:13.941Z,22.02
2022-11-29T19:26:44.376Z,25.00
2022-11-29T19:29:12.873Z,22.67
2022-11-29T19:31:42.621Z,21.85
2022-11-29T19:34:10.608Z,22.38
2022-11-29T19:36:42.836Z,26.23
2022-11-29T19:39:12.864Z,20.05
2022-11-29T19:41:42.276Z,18.92
2022-11-29T19:44:10.110Z,23.40
2022-11-29T19:46:40.652Z,22.08
2022-11-29T19:49:10.109Z,23.05
2022-11-29T19:51:38.232Z,22.05
2022-11-29T19:54:08.508Z,21.27
2022-11-29T19:56:36.410Z,24.85
2022-11-29T19:59:04.588Z,24.02
2022-11-29T20:01:40.166Z,24.88
2022-11-29T20:04:12.423Z,24.77
2022-11-29T20:06:42.003Z,17.80
2022-11-29T20:09:10.726Z,23.27
2022-11-29T20:11:38.619Z,21.98
2022-11-29T20:14:07.620Z,22.38
2022-11-29T20:16:37.934Z,24.98
2022-11-29T20:19:11.774Z,21.95
2022-11-29T20:21:43.702Z,21.80
2022-11-29T20:24:12.942Z,23.08
2022-11-29T20:26:41.850Z,21.55
2022-11-29T20:29:11.762Z,23.55
2022-11-29T20:31:47.657Z,20.15
2022-11-29T20:34:19.929Z,17.88
2022-11-29T20:37:07.431Z,24.05
2022-11-29T20:39:43.230Z,24.85
2022-11-29T20:42:47.774Z,26.27
2022-11-29T20:45:16.836Z,20.70
2022-11-29T20:47:50.912Z,22.88
2022-11-29T20:50:23.806Z,18.50
2022-11-29T20:53:03.986Z,22.40
2022-11-29T20:55:32.156Z,26.33
2022-11-29T20:58:00.008Z,21.27
2022-11-29T21:00:27.956Z,26.98
2022-11-29T21:02:55.857Z,20.85
2022-11-29T21:05:25.221Z,19.50
2022-11-29T21:07:53.106Z,22.67
2022-11-29T21:10:21.873Z,19.67
2022-11-29T21:12:50.734Z,21.92
2022-11-29T21:15:19.503Z,24.00
2022-11-29T21:17:47.862Z,17.83
2022-11-29T21:20:19.542Z,21.55
2022-11-29T21:22:56.719Z,22.55
2022-11-29T21:25:34.851Z,22.70
2022-11-29T21:28:05.200Z,25.50
2022-11-29T21:30:33.533Z,20.42
2022-11-29T21:33:01.820Z,23.02
2022-11-29T21:35:29.646Z,20.33
2022-11-29T21:38:01.955Z,22.00
2022-11-29T21:40:29.814Z,17.65
2022-11-29T21:42:57.664Z,19.75
2022-11-29T21:45:25.536Z,22.65
2022-11-29T21:47:53.470Z,22.65
2022-11-29T21:50:21.294Z,21.00
2022-11-29T21:52:52.403Z,24.15
2022-11-29T21:55:21.613Z,22.73
2022-11-29T21:57:49.398Z,18.52
2022-11-29T22:00:18.124Z,26.30
2022-11-29T22:02:46.010Z,19.45
2022-11-29T22:05:13.872Z,23.52
2022-11-29T22:07:41.695Z,23.42
2022-11-29T22:10:13.536Z,21.80
2022-11-29T22:12:51.984Z,20.42
2022-11-29T22:15:24.831Z,22.52
2022-11-29T22:17:53.257Z,21.60
2022-11-29T22:20:21.160Z,22.15
2022-11-29T22:22:49.023Z,15.68
2022-11-29T22:25:17.390Z,21.35
2022-11-29T22:27:46.585Z,20.55
2022-11-29T22:30:14.673Z,23.77
2022-11-29T22:32:42.488Z,25.40
2022-11-29T22:35:10.576Z,21.25
2022-11-29T22:37:38.427Z,20.40
2022-11-29T22:40:07.966Z,24.02
2022-11-29T22:42:35.813Z,23.52
2022-11-29T22:45:05.554Z,21.73
2022-11-29T22:47:33.404Z,21.58
2022-11-29T22:50:01.206Z,20.70
2022-11-29T22:52:29.014Z,23.80
2022-11-29T22:54:59.969Z,22.95
2022-11-29T22:57:32.261Z,20.15
2022-11-29T23:00:00.063Z,22.75
2022-11-29T23:02:29.370Z,23.90
2022-11-29T23:04:57.197Z,23.10
2022-11-29T23:07:25.044Z,22.08
2022-11-29T23:09:55.040Z,21.60
2022-11-29T23:12:23.048Z,25.58
2022-11-29T23:14:55.994Z,20.00
2022-11-29T23:17:24.322Z,22.60
2022-11-29T23:19:53.504Z,22.33
2022-11-29T23:22:21.303Z,20.88
2022-11-29T23:24:49.207Z,23.70
2022-11-29T23:27:17.030Z,20.15
2022-11-29T23:29:44.832Z,20.33
2022-11-29T23:32:12.699Z,22.17
2022-11-29T23:34:40.537Z,23.88
2022-11-29T23:37:09.814Z,23.98
2022-11-29T23:39:37.664Z,23.52
2022-11-29T23:42:05.803Z,23.55
2022-11-29T23:44:33.632Z,23.95
2022-11-29T23:47:01.455Z,21.83
2022-11-29T23:49:29.329Z,25.67
2022-11-29T23:51:57.174Z,19.17
2022-11-29T23:54:26.355Z,26.10
2022-11-29T23:56:54.160Z,21.50
2022-11-29T23:59:22.071Z,29.08
